Weather

Ora Tempo Temperatura Umidità Vento Precipitazioni
00:00 clear sky 24.6° 71% 0.43 km/h 0 mm
03:00 clear sky 23.5° 67% 0.9 km/h 0 mm
06:00 clear sky 27.1° 52% 0.41 km/h 0 mm
09:00 clear sky 32.7° 33% 2.93 km/h 0 mm
12:00 clear sky 33.7° 28% 4.88 km/h 0 mm
15:00 clear sky 32.3° 32% 4.82 km/h 0 mm
18:00 clear sky 26.4° 57% 2.31 km/h 0 mm
21:00 clear sky 21.0° 91% 1.01 km/h 0 mm
Ora Tempo Temperatura Umidità Vento Precipitazioni
00:00 clear sky 20.3° 93% 0.9 km/h 0 mm
03:00 clear sky 19.6° 88% 0.97 km/h 0 mm
06:00 clear sky 23.2° 69% 1.37 km/h 0 mm
09:00 clear sky 29.4° 45% 4.7 km/h 0 mm
12:00 scattered clouds 29.4° 56% 6.59 km/h 0 mm
15:00 clear sky 28.5° 61% 6.62 km/h 0 mm
18:00 scattered clouds 24.4° 85% 5.01 km/h 0 mm
21:00 light rain 22.5° 95% 1.78 km/h 0.69 mm
Ora Tempo Temperatura Umidità Vento Precipitazioni
00:00 moderate rain 21.8° 96% 1.75 km/h 5.62 mm
03:00 moderate rain 21.4° 87% 3.23 km/h 9.81 mm
06:00 light rain 22.6° 79% 2.32 km/h 1.69 mm
09:00 moderate rain 23.8° 69% 3.6 km/h 4.75 mm
12:00 moderate rain 23.4° 70% 5.84 km/h 4.06 mm
15:00 light rain 23.4° 70% 6.6 km/h 1.69 mm
18:00 light rain 21.4° 81% 3.11 km/h 0.12 mm
21:00 clear sky 19.1° 91% 1.61 km/h 0 mm
Ora Tempo Temperatura Umidità Vento Precipitazioni
00:00 clear sky 19.1° 87% 1.81 km/h 0 mm
03:00 clear sky 18.7° 90% 0.81 km/h 0 mm
06:00 clear sky 21.7° 79% 1.13 km/h 0 mm
09:00 few clouds 27.0° 53% 2.13 km/h 0 mm
12:00 clear sky 30.2° 45% 2.51 km/h 0 mm
15:00 scattered clouds 29.3° 48% 2.67 km/h 0 mm
18:00 scattered clouds 23.4° 67% 3.58 km/h 0 mm
21:00 clear sky 19.9° 79% 2.43 km/h 0 mm
Ora Tempo Temperatura Umidità Vento Precipitazioni
00:00 clear sky 18.9° 93% 1.51 km/h 0 mm
03:00 clear sky 18.1° 94% 1.23 km/h 0 mm
06:00 clear sky 21.6° 78% 1.24 km/h 0 mm
09:00 clear sky 27.7° 49% 1.92 km/h 0 mm
12:00 clear sky 31.1° 34% 3.69 km/h 0 mm
15:00 clear sky 29.5° 35% 4.2 km/h 0 mm
18:00 clear sky 24.0° 66% 1.95 km/h 0 mm
21:00 clear sky 20.3° 81% 1.51 km/h 0 mm
Friday 26 July
Temp. max: 33.7°
Temp. min: 21.0°
Ora Tempo Temperatura Umidità Vento Precipitazioni
00:00 clear sky 24.6° 71% 0.43 km/h 0 mm
03:00 clear sky 23.5° 67% 0.9 km/h 0 mm
06:00 clear sky 27.1° 52% 0.41 km/h 0 mm
09:00 clear sky 32.7° 33% 2.93 km/h 0 mm
12:00 clear sky 33.7° 28% 4.88 km/h 0 mm
15:00 clear sky 32.3° 32% 4.82 km/h 0 mm
18:00 clear sky 26.4° 57% 2.31 km/h 0 mm
21:00 clear sky 21.0° 91% 1.01 km/h 0 mm
Saturday 27 July
Temp. max: 29.4°
Temp. min: 19.6°
Ora Tempo Temperatura Umidità Vento Precipitazioni
00:00 clear sky 20.3° 93% 0.9 km/h 0 mm
03:00 clear sky 19.6° 88% 0.97 km/h 0 mm
06:00 clear sky 23.2° 69% 1.37 km/h 0 mm
09:00 clear sky 29.4° 45% 4.7 km/h 0 mm
12:00 scattered clouds 29.4° 56% 6.59 km/h 0 mm
15:00 clear sky 28.5° 61% 6.62 km/h 0 mm
18:00 scattered clouds 24.4° 85% 5.01 km/h 0 mm
21:00 light rain 22.5° 95% 1.78 km/h 0.69 mm
Sunday 28 July
Temp. max: 23.8°
Temp. min: 19.1°
Ora Tempo Temperatura Umidità Vento Precipitazioni
00:00 moderate rain 21.8° 96% 1.75 km/h 5.62 mm
03:00 moderate rain 21.4° 87% 3.23 km/h 9.81 mm
06:00 light rain 22.6° 79% 2.32 km/h 1.69 mm
09:00 moderate rain 23.8° 69% 3.6 km/h 4.75 mm
12:00 moderate rain 23.4° 70% 5.84 km/h 4.06 mm
15:00 light rain 23.4° 70% 6.6 km/h 1.69 mm
18:00 light rain 21.4° 81% 3.11 km/h 0.12 mm
21:00 clear sky 19.1° 91% 1.61 km/h 0 mm
Monday 29 July
Temp. max: 30.2°
Temp. min: 18.7°
Ora Tempo Temperatura Umidità Vento Precipitazioni
00:00 clear sky 19.1° 87% 1.81 km/h 0 mm
03:00 clear sky 18.7° 90% 0.81 km/h 0 mm
06:00 clear sky 21.7° 79% 1.13 km/h 0 mm
09:00 few clouds 27.0° 53% 2.13 km/h 0 mm
12:00 clear sky 30.2° 45% 2.51 km/h 0 mm
15:00 scattered clouds 29.3° 48% 2.67 km/h 0 mm
18:00 scattered clouds 23.4° 67% 3.58 km/h 0 mm
21:00 clear sky 19.9° 79% 2.43 km/h 0 mm
Tuesday 30 July
Temp. max: 31.1°
Temp. min: 18.1°
Ora Tempo Temperatura Umidità Vento Precipitazioni
00:00 clear sky 18.9° 93% 1.51 km/h 0 mm
03:00 clear sky 18.1° 94% 1.23 km/h 0 mm
06:00 clear sky 21.6° 78% 1.24 km/h 0 mm
09:00 clear sky 27.7° 49% 1.92 km/h 0 mm
12:00 clear sky 31.1° 34% 3.69 km/h 0 mm
15:00 clear sky 29.5° 35% 4.2 km/h 0 mm
18:00 clear sky 24.0° 66% 1.95 km/h 0 mm
21:00 clear sky 20.3° 81% 1.51 km/h 0 mm

Live Cam

VUOI RICEVERE PIÚ INFORMAZIONI SUI NOSTRI SERVIZI?

Usa la form di contatti sul sito o contattaci telefonicamente